createdAt,value
2019-02-17T00:00:26.161Z,27.63
2019-02-17T00:02:56.463Z,26.87
2019-02-17T00:05:26.846Z,30.90
2019-02-17T00:07:57.442Z,29.43
2019-02-17T00:10:27.920Z,27.93
2019-02-17T00:12:58.522Z,36.33
2019-02-17T00:15:29.074Z,35.93
2019-02-17T00:17:59.354Z,33.87
2019-02-17T00:20:29.925Z,30.43
2019-02-17T00:23:00.363Z,27.53
2019-02-17T00:25:30.813Z,24.40
2019-02-17T00:28:01.142Z,26.97
2019-02-17T00:30:31.674Z,25.53
2019-02-17T00:33:02.063Z,23.27
2019-02-17T00:35:32.623Z,24.03
2019-02-17T00:38:02.822Z,30.07
2019-02-17T00:40:33.230Z,29.10
2019-02-17T00:43:03.646Z,27.07
2019-02-17T00:45:34.142Z,27.80
2019-02-17T00:48:04.446Z,30.13
2019-02-17T00:50:34.676Z,35.37
2019-02-17T00:53:05.066Z,28.60
2019-02-17T00:55:34.877Z,32.33
2019-02-17T00:58:05.570Z,36.30
2019-02-17T01:00:36.368Z,36.00
2019-02-17T01:03:06.950Z,42.80
2019-02-17T01:05:37.263Z,35.50
2019-02-17T01:08:07.962Z,32.63
2019-02-17T01:10:38.658Z,31.47
2019-02-17T01:13:08.944Z,27.60
2019-02-17T01:15:39.204Z,31.77
2019-02-17T01:18:09.482Z,33.07
2019-02-17T01:20:40.131Z,28.33
2019-02-17T01:23:10.473Z,26.37
2019-02-17T01:25:40.830Z,27.57
2019-02-17T01:28:11.070Z,28.10
2019-02-17T01:30:41.498Z,22.63
2019-02-17T01:33:11.845Z,20.83
2019-02-17T01:35:42.214Z,23.30
2019-02-17T01:38:11.940Z,24.27
2019-02-17T01:40:42.129Z,22.70
2019-02-17T01:43:12.647Z,18.20
2019-02-17T01:45:43.129Z,21.37
2019-02-17T01:48:13.511Z,20.47
2019-02-17T01:50:43.842Z,20.40
2019-02-17T01:53:14.075Z,20.60
2019-02-17T01:55:44.177Z,18.13
2019-02-17T01:58:14.658Z,23.80
2019-02-17T02:00:45.074Z,21.90
2019-02-17T02:03:15.474Z,19.20
2019-02-17T02:05:45.176Z,38.73
2019-02-17T02:08:15.986Z,35.40
2019-02-17T02:10:46.559Z,30.47
2019-02-17T02:13:17.178Z,24.70
2019-02-17T02:15:47.482Z,21.03
2019-02-17T02:18:17.999Z,18.67
2019-02-17T02:20:48.385Z,20.20
2019-02-17T02:23:18.836Z,16.20
2019-02-17T02:25:49.232Z,18.77
2019-02-17T02:28:19.906Z,16.17
2019-02-17T02:30:50.264Z,20.63
2019-02-17T02:33:20.575Z,19.83
2019-02-17T02:35:50.855Z,17.53
2019-02-17T02:38:21.118Z,18.90
2019-02-17T02:40:51.516Z,21.93
2019-02-17T02:43:21.987Z,22.90
2019-02-17T02:45:52.403Z,22.43
2019-02-17T02:48:22.787Z,17.30
2019-02-17T02:50:53.428Z,16.67
2019-02-17T02:53:23.618Z,15.80
2019-02-17T02:55:54.487Z,18.93
2019-02-17T02:58:24.849Z,19.57
2019-02-17T03:00:55.302Z,18.77
2019-02-17T03:03:25.546Z,16.97
2019-02-17T03:06:07.624Z,15.80
2019-02-17T03:08:37.950Z,15.93
2019-02-17T03:11:08.398Z,18.33
2019-02-17T03:13:38.757Z,19.90
2019-02-17T03:16:09.194Z,17.53
2019-02-17T03:18:39.603Z,17.27
2019-02-17T03:21:10.008Z,18.50
2019-02-17T03:23:40.263Z,21.40
2019-02-17T03:26:10.687Z,16.93
2019-02-17T03:28:41.115Z,27.53
2019-02-17T03:31:11.682Z,19.83
2019-02-17T03:33:42.219Z,20.90
2019-02-17T03:36:12.571Z,18.97
2019-02-17T03:38:42.874Z,15.67
2019-02-17T03:41:13.241Z,14.93
2019-02-17T03:43:43.790Z,14.33
2019-02-17T03:46:14.302Z,14.17
2019-02-17T03:48:44.526Z,16.80
2019-02-17T03:51:15.049Z,16.47
2019-02-17T03:53:45.468Z,13.30
2019-02-17T03:56:15.874Z,10.77
2019-02-17T03:58:46.178Z,9.93
2019-02-17T04:01:16.755Z,9.57
2019-02-17T04:03:46.508Z,8.63
2019-02-17T04:06:17.003Z,8.80
2019-02-17T04:08:47.438Z,7.73
2019-02-17T04:11:18.113Z,8.37
2019-02-17T04:13:48.367Z,7.40
2019-02-17T04:16:18.705Z,7.73
2019-02-17T04:18:49.009Z,7.40
2019-02-17T04:21:19.486Z,8.33
2019-02-17T04:23:49.824Z,7.47
2019-02-17T04:26:20.278Z,7.80
2019-02-17T04:28:50.645Z,8.13
2019-02-17T04:31:20.963Z,8.17
2019-02-17T04:33:51.688Z,8.20
2019-02-17T04:36:21.993Z,8.73
2019-02-17T04:38:52.446Z,13.90
2019-02-17T04:41:22.705Z,15.63
2019-02-17T04:43:53.330Z,16.00
2019-02-17T04:46:24.401Z,16.83
2019-02-17T04:48:54.743Z,16.17
2019-02-17T04:51:25.254Z,16.90
2019-02-17T04:53:55.756Z,15.13
2019-02-17T04:56:26.125Z,15.27
2019-02-17T04:58:56.418Z,16.83
2019-02-17T05:01:26.764Z,16.47
2019-02-17T05:03:57.054Z,19.50
2019-02-17T05:06:27.399Z,20.90
2019-02-17T05:08:57.990Z,20.20
2019-02-17T05:11:28.331Z,19.50
2019-02-17T05:13:58.712Z,17.73
2019-02-17T05:16:29.250Z,18.00
2019-02-17T05:18:59.610Z,19.07
2019-02-17T05:21:30.241Z,18.10
2019-02-17T05:24:00.673Z,18.90
2019-02-17T05:26:30.989Z,20.20
2019-02-17T05:29:01.394Z,27.50
2019-02-17T05:31:32.048Z,27.33
2019-02-17T05:34:02.548Z,27.33
2019-02-17T05:36:32.742Z,27.93
2019-02-17T05:39:03.100Z,27.33
2019-02-17T05:41:33.567Z,26.90
2019-02-17T05:44:04.034Z,25.93
2019-02-17T05:46:34.320Z,27.77
2019-02-17T05:49:04.686Z,29.30
2019-02-17T05:51:35.013Z,27.97
2019-02-17T05:54:05.559Z,29.80
2019-02-17T05:56:35.659Z,30.70
2019-02-17T05:59:06.033Z,32.20
2019-02-17T06:01:36.453Z,30.07
2019-02-17T06:04:06.845Z,29.83
2019-02-17T06:06:37.195Z,29.87
2019-02-17T06:09:07.666Z,29.50
2019-02-17T06:11:38.007Z,30.73
2019-02-17T06:14:08.241Z,31.30
2019-02-17T06:16:38.682Z,34.43
2019-02-17T06:19:09.169Z,32.73
2019-02-17T06:21:39.395Z,33.53
2019-02-17T06:24:09.626Z,35.73
2019-02-17T06:26:40.103Z,31.93
2019-02-17T06:29:10.599Z,31.53
2019-02-17T06:31:40.898Z,28.43
2019-02-17T06:34:11.374Z,32.10
2019-02-17T06:36:41.794Z,32.47
2019-02-17T06:39:12.073Z,31.90
2019-02-17T06:41:42.403Z,31.97
2019-02-17T06:44:12.715Z,35.67
2019-02-17T06:46:48.729Z,29.70
2019-02-17T06:49:19.213Z,27.33
2019-02-17T06:51:49.513Z,28.87
2019-02-17T06:54:19.974Z,28.73
2019-02-17T06:56:58.114Z,29.50
2019-02-17T06:59:28.615Z,28.83
2019-02-17T07:01:58.929Z,28.93
2019-02-17T07:04:33.310Z,31.90
2019-02-17T07:07:05.530Z,33.57
2019-02-17T07:09:35.979Z,43.20
2019-02-17T07:12:06.266Z,52.13
2019-02-17T07:14:38.363Z,55.37
2019-02-17T07:17:06.397Z,61.33
2019-02-17T07:19:35.944Z,47.83
2019-02-17T07:22:06.091Z,43.77
2019-02-17T07:24:36.403Z,45.60
2019-02-17T07:27:06.834Z,47.00
2019-02-17T07:29:37.219Z,48.70
2019-02-17T07:32:07.726Z,54.07
2019-02-17T07:34:38.095Z,58.40
2019-02-17T07:37:08.538Z,49.27
2019-02-17T07:39:38.974Z,47.30
2019-02-17T07:42:09.774Z,45.03
2019-02-17T07:44:40.553Z,44.70
2019-02-17T07:47:10.433Z,49.87
2019-02-17T07:49:41.142Z,48.33
2019-02-17T07:52:11.447Z,49.53
2019-02-17T07:54:41.754Z,70.63
2019-02-17T07:57:12.239Z,62.73
2019-02-17T07:59:42.637Z,60.90
2019-02-17T08:02:13.050Z,58.93
2019-02-17T08:04:43.361Z,51.07
2019-02-17T08:07:13.758Z,40.80
2019-02-17T08:09:44.085Z,34.13
2019-02-17T08:12:14.370Z,40.73
2019-02-17T08:14:44.714Z,33.43
2019-02-17T08:17:15.259Z,31.47
2019-02-17T08:19:45.517Z,30.80
2019-02-17T08:22:15.847Z,28.17
2019-02-17T08:24:46.589Z,28.23
2019-02-17T08:27:16.902Z,26.33
2019-02-17T08:29:47.210Z,25.50
2019-02-17T08:32:17.658Z,20.90
2019-02-17T08:34:47.866Z,20.30
2019-02-17T08:37:18.327Z,18.70
2019-02-17T08:39:49.010Z,17.47
2019-02-17T08:42:19.124Z,12.83
2019-02-17T08:44:49.403Z,16.73
2019-02-17T08:47:19.809Z,17.37
2019-02-17T08:49:49.542Z,19.67
2019-02-17T08:52:19.859Z,20.80
2019-02-17T08:54:50.137Z,22.40
2019-02-17T08:57:20.558Z,16.20
2019-02-17T08:59:50.913Z,17.23
2019-02-17T09:02:21.173Z,13.60
2019-02-17T09:04:51.445Z,12.80
2019-02-17T09:07:21.642Z,12.10
2019-02-17T09:09:51.885Z,11.73
2019-02-17T09:12:22.224Z,11.73
2019-02-17T09:14:52.654Z,12.67
2019-02-17T09:17:23.116Z,12.23
2019-02-17T09:19:53.357Z,12.23
2019-02-17T09:22:23.621Z,11.37
2019-02-17T09:24:53.958Z,12.00
2019-02-17T09:27:24.318Z,11.90
2019-02-17T09:29:54.574Z,11.77
2019-02-17T09:32:24.968Z,12.20
2019-02-17T09:34:55.186Z,12.50
2019-02-17T09:37:25.569Z,11.47
2019-02-17T09:39:55.969Z,12.70
2019-02-17T09:42:26.278Z,11.77
2019-02-17T09:44:56.601Z,10.57
2019-02-17T09:47:27.138Z,12.10
2019-02-17T09:49:57.441Z,12.07
2019-02-17T09:52:27.762Z,11.40
2019-02-17T09:54:58.131Z,14.33
2019-02-17T09:57:28.504Z,14.73
2019-02-17T09:59:58.808Z,14.30
2019-02-17T10:02:29.086Z,14.17
2019-02-17T10:04:59.554Z,14.07
2019-02-17T10:07:29.902Z,14.43
2019-02-17T10:10:00.221Z,13.93
2019-02-17T10:12:30.551Z,14.87
2019-02-17T10:15:00.818Z,15.03
2019-02-17T10:17:31.203Z,14.73
2019-02-17T10:20:01.426Z,15.07
2019-02-17T10:22:31.702Z,14.70
2019-02-17T10:25:02.422Z,14.57
2019-02-17T10:27:32.838Z,15.70
2019-02-17T10:30:03.127Z,15.50
2019-02-17T10:32:37.271Z,15.43
2019-02-17T10:35:04.302Z,20.53
2019-02-17T10:37:34.613Z,17.57
2019-02-17T10:40:05.149Z,15.83
2019-02-17T10:42:35.462Z,17.00
2019-02-17T10:45:06.005Z,17.13
2019-02-17T10:47:36.575Z,15.50
2019-02-17T10:50:07.209Z,16.20
2019-02-17T10:52:37.534Z,15.90
2019-02-17T10:55:08.169Z,15.60
2019-02-17T10:57:38.594Z,15.30
2019-02-17T11:00:12.572Z,14.87
2019-02-17T11:02:46.969Z,14.23
2019-02-17T11:05:13.750Z,14.50
2019-02-17T11:07:44.453Z,13.60
2019-02-17T11:10:14.852Z,14.30
2019-02-17T11:12:45.288Z,13.87
2019-02-17T11:15:17.504Z,12.53
2019-02-17T11:17:48.026Z,12.87
2019-02-17T11:20:18.292Z,13.70
2019-02-17T11:22:48.601Z,13.93
2019-02-17T11:25:18.912Z,12.23
2019-02-17T11:27:49.313Z,12.07
2019-02-17T11:30:19.709Z,12.57
2019-02-17T11:32:57.600Z,11.57
2019-02-17T11:35:20.445Z,12.03
2019-02-17T11:37:50.781Z,11.83
2019-02-17T11:40:21.093Z,11.97
2019-02-17T11:42:51.533Z,11.60
2019-02-17T11:45:22.381Z,11.07
2019-02-17T11:47:52.697Z,11.57
2019-02-17T11:50:22.819Z,11.87
2019-02-17T11:52:53.193Z,12.40
2019-02-17T11:55:23.638Z,11.97
2019-02-17T11:57:54.296Z,12.53
2019-02-17T12:00:24.626Z,12.00
2019-02-17T12:02:54.873Z,11.90
2019-02-17T12:05:25.121Z,11.50
2019-02-17T12:07:55.462Z,11.90
2019-02-17T12:10:25.722Z,11.83
2019-02-17T12:12:56.033Z,12.10
2019-02-17T12:15:26.272Z,11.30
2019-02-17T12:17:56.553Z,11.50
2019-02-17T12:21:29.676Z,11.87
2019-02-17T12:24:04.826Z,10.97
2019-02-17T12:26:42.102Z,10.90
2019-02-17T12:29:17.441Z,11.20
2019-02-17T12:31:47.794Z,11.67
2019-02-17T12:34:18.281Z,11.37
2019-02-17T12:36:48.565Z,10.60
2019-02-17T12:39:18.891Z,11.03
2019-02-17T12:41:49.211Z,11.87
2019-02-17T12:44:19.558Z,13.00
2019-02-17T12:46:49.975Z,12.53
2019-02-17T12:49:20.630Z,12.77
2019-02-17T12:51:50.881Z,12.73
2019-02-17T12:54:28.899Z,12.40
2019-02-17T12:56:51.068Z,11.83
2019-02-17T12:59:21.298Z,11.77
2019-02-17T13:01:51.606Z,12.50
2019-02-17T13:04:22.043Z,12.23
2019-02-17T13:06:51.778Z,12.90
2019-02-17T13:09:22.098Z,11.90
2019-02-17T13:11:52.345Z,12.70
2019-02-17T13:14:22.656Z,12.00
2019-02-17T13:16:53.086Z,11.63
2019-02-17T13:19:23.261Z,11.63
2019-02-17T13:21:53.612Z,11.87
2019-02-17T13:24:23.902Z,11.83
2019-02-17T13:26:54.082Z,11.80
2019-02-17T13:29:24.320Z,11.47
2019-02-17T13:31:54.562Z,13.10
2019-02-17T13:34:24.942Z,11.73
2019-02-17T13:36:55.226Z,12.10
2019-02-17T13:39:25.557Z,12.07
2019-02-17T13:41:56.131Z,13.00
2019-02-17T13:44:26.483Z,12.70
2019-02-17T13:46:56.742Z,13.50
2019-02-17T13:49:27.066Z,13.43
2019-02-17T13:51:57.394Z,12.10
2019-02-17T13:54:27.842Z,12.07
2019-02-17T13:56:58.111Z,12.97
2019-02-17T13:59:28.444Z,11.97
2019-02-17T14:01:58.056Z,12.23
2019-02-17T14:04:28.429Z,13.00
2019-02-17T14:06:58.701Z,11.93
2019-02-17T14:15:16.643Z,12.60
2019-02-17T14:17:47.009Z,11.47
2019-02-17T14:20:17.566Z,12.20
2019-02-17T14:22:47.988Z,12.80
2019-02-17T14:25:18.348Z,12.50
2019-02-17T14:27:48.687Z,11.40
2019-02-17T14:30:19.354Z,11.93
2019-02-17T14:32:49.659Z,11.67
2019-02-17T14:35:19.943Z,12.43
2019-02-17T14:37:50.266Z,12.03
2019-02-17T14:40:20.640Z,11.03
2019-02-17T14:42:50.884Z,11.60
2019-02-17T14:45:21.158Z,11.17
2019-02-17T14:47:51.495Z,11.60
2019-02-17T14:50:21.856Z,12.27
2019-02-17T14:52:52.135Z,11.50
2019-02-17T14:55:22.524Z,12.00
2019-02-17T14:57:52.682Z,11.93
2019-02-17T15:00:22.931Z,11.67
2019-02-17T15:02:53.231Z,11.67
2019-02-17T15:05:23.549Z,11.40
2019-02-17T15:07:53.880Z,11.90
2019-02-17T15:10:24.229Z,11.07
2019-02-17T15:12:54.054Z,11.97
2019-02-17T15:15:24.424Z,11.60
2019-02-17T15:17:54.538Z,11.93
2019-02-17T15:20:24.967Z,10.87
2019-02-17T15:22:55.335Z,11.63
2019-02-17T15:25:25.628Z,11.43
2019-02-17T15:27:55.951Z,11.93
2019-02-17T15:30:26.231Z,10.70
2019-02-17T15:33:03.507Z,10.70
2019-02-17T15:35:26.806Z,11.70
2019-02-17T15:37:57.144Z,11.13
2019-02-17T15:40:27.579Z,11.27
2019-02-17T15:42:57.298Z,11.13
2019-02-17T15:45:28.527Z,10.87
2019-02-17T15:47:59.082Z,11.13
2019-02-17T15:50:29.630Z,10.63
2019-02-17T15:52:59.891Z,9.93
2019-02-17T15:55:30.315Z,10.47
2019-02-17T15:58:00.619Z,9.83
2019-02-17T16:00:30.915Z,9.83
2019-02-17T16:03:01.180Z,9.97
2019-02-17T16:05:31.637Z,12.00
2019-02-17T16:08:08.656Z,11.07
2019-02-17T16:10:39.027Z,13.50
2019-02-17T16:13:09.330Z,13.50
2019-02-17T16:15:39.595Z,13.17
2019-02-17T16:18:09.979Z,102.23
2019-02-17T16:20:40.292Z,100.07
2019-02-17T16:23:10.636Z,45.53
2019-02-17T16:25:41.013Z,73.10
2019-02-17T16:28:11.615Z,24.73
2019-02-17T16:30:41.995Z,26.03
2019-02-17T16:33:12.469Z,47.93
2019-02-17T16:35:42.777Z,51.43
2019-02-17T16:38:13.075Z,29.93
2019-02-17T16:40:43.380Z,15.50
2019-02-17T16:43:13.722Z,13.10
2019-02-17T16:45:44.244Z,11.07
2019-02-17T16:48:14.480Z,12.37
2019-02-17T16:50:44.564Z,12.83
2019-02-17T16:53:14.515Z,56.13
2019-02-17T16:55:44.963Z,31.57
2019-02-17T16:58:15.396Z,13.20
2019-02-17T17:00:45.892Z,25.77
2019-02-17T17:03:16.189Z,51.97
2019-02-17T17:05:46.608Z,14.80
2019-02-17T17:08:17.175Z,15.03
2019-02-17T17:10:47.531Z,15.07
2019-02-17T17:13:17.924Z,15.40
2019-02-17T17:15:48.033Z,33.23
2019-02-17T17:18:18.338Z,28.70
2019-02-17T17:20:48.652Z,21.20
2019-02-17T17:23:18.917Z,20.80
2019-02-17T17:25:49.418Z,29.10
2019-02-17T17:28:19.994Z,24.03
2019-02-17T17:30:50.315Z,46.30
2019-02-17T17:33:20.623Z,40.97
2019-02-17T17:35:50.871Z,40.00
2019-02-17T17:38:21.182Z,26.17
2019-02-17T17:40:51.648Z,26.87
2019-02-17T17:43:21.613Z,32.97
2019-02-17T17:45:51.681Z,31.97
2019-02-17T17:48:21.713Z,24.30
2019-02-17T17:50:51.951Z,67.83
2019-02-17T17:53:22.265Z,34.03
2019-02-17T17:55:52.643Z,84.30
2019-02-17T17:58:22.973Z,56.90
2019-02-17T18:00:53.399Z,80.43
2019-02-17T18:03:23.691Z,91.40
2019-02-17T18:05:54.047Z,50.90
2019-02-17T18:08:24.411Z,39.20
2019-02-17T18:10:54.864Z,33.63
2019-02-17T18:13:25.164Z,55.63
2019-02-17T18:15:55.439Z,89.57
2019-02-17T18:18:25.916Z,29.90
2019-02-17T18:20:56.241Z,23.80
2019-02-17T18:23:26.604Z,25.43
2019-02-17T18:25:57.118Z,48.40
2019-02-17T18:28:27.471Z,37.30
2019-02-17T18:30:57.844Z,40.07
2019-02-17T18:33:28.343Z,32.13
2019-02-17T18:36:00.817Z,49.63
2019-02-17T18:38:35.211Z,38.33
2019-02-17T18:41:05.720Z,62.70
2019-02-17T18:43:36.063Z,169.83
2019-02-17T18:46:06.651Z,143.83
2019-02-17T18:48:37.177Z,100.00
2019-02-17T18:51:07.935Z,65.93
2019-02-17T18:53:38.338Z,51.27
2019-02-17T18:56:09.859Z,30.63
2019-02-17T18:58:41.433Z,66.27
2019-02-17T19:01:12.036Z,42.90
2019-02-17T19:03:42.854Z,82.20
2019-02-17T19:06:13.646Z,40.97
2019-02-17T19:08:45.236Z,25.63
2019-02-17T19:11:15.732Z,37.07
2019-02-17T19:13:47.243Z,37.40
2019-02-17T19:16:19.460Z,34.70
2019-02-17T19:18:50.600Z,27.80
2019-02-17T19:21:21.323Z,35.47
2019-02-17T19:23:51.711Z,37.57
2019-02-17T19:26:23.699Z,34.27
2019-02-17T19:28:54.651Z,50.80
2019-02-17T19:31:25.931Z,53.60
2019-02-17T19:33:57.009Z,47.53
2019-02-17T19:36:27.637Z,41.73
2019-02-17T19:38:58.440Z,60.03
2019-02-17T19:41:29.843Z,78.97
2019-02-17T19:44:00.470Z,45.83
2019-02-17T19:46:31.613Z,41.57
2019-02-17T19:49:03.350Z,37.23
2019-02-17T19:51:34.419Z,33.53
2019-02-17T19:54:05.479Z,42.20
2019-02-17T19:56:36.523Z,83.30
2019-02-17T19:59:07.293Z,116.10
2019-02-17T20:01:38.108Z,111.13
2019-02-17T20:04:15.776Z,46.03
2019-02-17T20:06:46.970Z,41.17
2019-02-17T20:09:19.514Z,34.63
2019-02-17T20:11:52.160Z,36.63
2019-02-17T20:14:20.537Z,88.17
2019-02-17T20:16:50.958Z,34.83
2019-02-17T20:19:21.353Z,36.27
2019-02-17T20:21:51.914Z,29.03
2019-02-17T20:24:22.537Z,36.23
2019-02-17T20:26:53.327Z,31.80
2019-02-17T20:29:23.563Z,30.40
2019-02-17T20:31:54.021Z,45.93
2019-02-17T20:34:24.528Z,59.57
2019-02-17T20:36:55.052Z,38.27
2019-02-17T20:39:25.363Z,30.27
2019-02-17T20:41:55.703Z,31.23
2019-02-17T20:44:25.983Z,40.73
2019-02-17T20:46:56.486Z,48.03
2019-02-17T20:49:26.783Z,29.67
2019-02-17T20:51:57.291Z,33.20
2019-02-17T20:54:27.866Z,75.97
2019-02-17T20:56:58.314Z,183.97
2019-02-17T20:59:28.741Z,184.40
2019-02-17T21:01:59.133Z,64.23
2019-02-17T21:04:29.469Z,38.43
2019-02-17T21:06:59.162Z,55.53
2019-02-17T21:09:29.471Z,49.07
2019-02-17T21:11:59.895Z,33.53
2019-02-17T21:14:30.152Z,25.10
2019-02-17T21:17:00.617Z,32.10
2019-02-17T21:19:31.118Z,32.23
2019-02-17T21:22:01.454Z,30.00
2019-02-17T21:24:31.855Z,29.83
2019-02-17T21:27:02.130Z,34.33
2019-02-17T21:29:32.603Z,32.10
2019-02-17T21:32:03.149Z,34.17
2019-02-17T21:34:33.575Z,35.20
2019-02-17T21:37:03.908Z,33.73
2019-02-17T21:39:34.518Z,31.93
2019-02-17T21:42:04.159Z,33.70
2019-02-17T21:44:34.355Z,30.67
2019-02-17T21:47:04.693Z,32.73
2019-02-17T21:49:34.833Z,41.07
2019-02-17T21:52:05.287Z,35.90
2019-02-17T21:54:35.506Z,30.97
2019-02-17T21:57:05.867Z,30.33
2019-02-17T21:59:35.936Z,55.50
2019-02-17T22:02:06.076Z,30.43
2019-02-17T22:04:36.153Z,27.80
2019-02-17T22:07:06.262Z,30.40
2019-02-17T22:09:36.289Z,23.03
2019-02-17T22:12:06.445Z,21.20
2019-02-17T22:14:36.579Z,23.53
2019-02-17T22:17:06.785Z,21.90
2019-02-17T22:19:36.892Z,23.17
2019-02-17T22:22:07.029Z,30.00
2019-02-17T22:24:37.145Z,38.10
2019-02-17T22:27:07.516Z,29.97
2019-02-17T22:29:37.752Z,23.33
2019-02-17T22:32:07.910Z,23.97
2019-02-17T22:34:38.352Z,27.67
2019-02-17T22:37:08.747Z,43.43
2019-02-17T22:39:39.039Z,41.30
2019-02-17T22:42:09.574Z,50.60
2019-02-17T22:44:39.895Z,47.03
2019-02-17T22:47:10.378Z,47.37
2019-02-17T22:49:40.822Z,56.70
2019-02-17T22:52:11.067Z,57.57
2019-02-17T22:54:41.459Z,72.17
2019-02-17T22:57:11.828Z,65.57
2019-02-17T22:59:42.298Z,71.47
2019-02-17T23:02:12.838Z,61.43
2019-02-17T23:04:43.434Z,66.53
2019-02-17T23:07:13.698Z,56.93
2019-02-17T23:09:44.055Z,52.67
2019-02-17T23:12:15.030Z,50.27
2019-02-17T23:14:45.495Z,49.93
2019-02-17T23:17:15.190Z,45.17
2019-02-17T23:19:45.499Z,48.90
2019-02-17T23:22:16.092Z,46.03
2019-02-17T23:24:46.858Z,46.20
2019-02-17T23:27:17.374Z,43.97
2019-02-17T23:29:47.677Z,41.13
2019-02-17T23:32:18.172Z,46.00
2019-02-17T23:34:48.291Z,47.57
2019-02-17T23:37:18.415Z,51.00
2019-02-17T23:39:48.518Z,53.63
2019-02-17T23:42:18.608Z,49.47
2019-02-17T23:44:48.688Z,54.13
2019-02-17T23:47:18.832Z,52.10
2019-02-17T23:49:48.940Z,48.83
2019-02-17T23:52:19.503Z,48.70
2019-02-17T23:54:49.592Z,48.97
2019-02-17T23:57:19.706Z,51.07
2019-02-17T23:59:49.837Z,51.10
